| time (UTC) | temp F | wind direction | speed MPH | gust MPH | rain 1hr in | rain 24hr in | rain mn in | humidity % | barometer mb |
| 20260508041527 | 59 | 252 | 0.0 | 4.0 | 0.00 | 0.00 | 0.00 | 44 | 1019.9 |
| 20260508040105 | 59 | 253 | 0.0 | 3.0 | 0.00 | 0.00 | 0.00 | 44 | 1019.6 |
| 20260508034533 | 58 | 272 | 0.0 | 3.0 | 0.00 | 0.00 | 0.00 | 44 | 1019.6 |
| 20260508033030 | 58 | 261 | 0.0 | 2.0 | 0.00 | 0.00 | 0.00 | 41 | 1019.4 |
| 20260508031607 | 60 | 262 | 0.0 | 2.0 | 0.00 | 0.00 | 0.00 | 37 | 1019.4 |
| 20260508030032 | 61 | 272 | 0.0 | 2.0 | 0.00 | 0.00 | 0.00 | 33 | 1019.4 |
| 20260508024603 | 62 | 266 | 0.0 | 3.0 | 0.00 | 0.00 | 0.00 | 31 | 1019.4 |
| 20260508021605 | 65 | 265 | 0.0 | 6.0 | 0.00 | 0.00 | 0.00 | 27 | 1019.2 |
| 20260508020028 | 66 | 271 | 0.0 | 5.0 | 0.00 | 0.00 | 0.00 | 26 | 1019.1 |
| 20260508014605 | 67 | 275 | 0.0 | 4.0 | 0.00 | 0.00 | 0.00 | 25 | 1019.0 |
| 20260508013030 | 68 | 266 | 0.0 | 4.0 | 0.00 | 0.00 | 0.00 | 25 | 1019.1 |
| 20260508011606 | 69 | 267 | 0.0 | 4.0 | 0.00 | 0.00 | 0.00 | 25 | 1019.2 |
| 20260508010031 | 68 | 265 | 0.0 | 4.0 | 0.00 | 0.00 | 0.00 | 24 | 1019.3 |
| 20260508004528 | 68 | 269 | 1.0 | 8.0 | 0.00 | 0.00 | 0.00 | 23 | 1019.2 |
| 20260508003029 | 69 | 270 | 0.0 | 6.0 | 0.00 | 0.00 | 0.00 | 23 | 1019.1 |
| 20260508001529 | 69 | 263 | 1.0 | 8.0 | 0.00 | 0.00 | 0.00 | 21 | 1019.2 |
| 20260508000032 | 70 | 274 | 1.0 | 8.0 | 0.00 | 0.00 | 0.00 | 22 | 1019.1 |
| 20260507234530 | 71 | 271 | 0.0 | 6.0 | 0.00 | 0.00 | 0.00 | 22 | 1019.1 |
| 20260507233027 | 70 | 264 | 0.0 | 7.0 | 0.00 | 0.00 | 0.00 | 23 | 1019.2 |
| 20260507230029 | 70 | 271 | 1.0 | 7.0 | 0.00 | 0.00 | 0.00 | 26 | 1019.5 |
| 20260507224528 | 70 | 275 | 1.0 | 8.0 | 0.00 | 0.00 | 0.00 | 27 | 1019.6 |
| 20260507223025 | 70 | 284 | 0.0 | 6.0 | 0.00 | 0.00 | 0.00 | 27 | 1019.6 |
| 20260507221645 | 70 | 273 | 0.0 | 7.0 | 0.00 | 0.00 | 0.00 | 29 | 1019.9 |
| 20260507220033 | 69 | 265 | 1.0 | 6.0 | 0.00 | 0.00 | 0.00 | 31 | 1020.0 |
| 20260507214530 | 69 | 255 | 1.0 | 8.0 | 0.00 | 0.00 | 0.00 | 32 | 1020.1 |
| 20260507213029 | 69 | 254 | 1.0 | 7.0 | 0.00 | 0.00 | 0.00 | 37 | 1020.1 |
| 20260507211541 | 68 | 252 | 0.0 | 6.0 | 0.00 | 0.00 | 0.00 | 40 | 1020.2 |
| 20260507210032 | 68 | 263 | 1.0 | 8.0 | 0.00 | 0.00 | 0.00 | 42 | 1020.2 |
| 20260507204604 | 67 | 273 | 1.0 | 7.0 | 0.00 | 0.00 | 0.00 | 43 | 1020.3 |
| 20260507203032 | 67 | 276 | 1.0 | 7.0 | 0.00 | 0.00 | 0.00 | 43 | 1020.3 |
| 20260507200030 | 66 | 274 | 1.0 | 9.0 | 0.00 | 0.00 | 0.00 | 45 | 1020.7 |
| 20260507191529 | 63 | 277 | 1.0 | 8.0 | 0.00 | 0.00 | 0.00 | 51 | 1021.1 |
| 20260507184529 | 62 | 253 | 2.0 | 12.0 | 0.00 | 0.00 | 0.00 | 54 | 1021.6 |
| 20260507183027 | 62 | 249 | 2.0 | 11.0 | 0.00 | 0.00 | 0.00 | 55 | 1021.6 |
| 20260507181530 | 62 | 247 | 1.0 | 9.0 | 0.00 | 0.00 | 0.00 | 56 | 1021.6 |
| 20260507174532 | 62 | 253 | 1.0 | 5.0 | 0.00 | 0.00 | 0.00 | 59 | 1021.9 |
| 20260507173028 | 60 | 253 | 1.0 | 8.0 | 0.00 | 0.00 | 0.00 | 61 | 1022.2 |
| 20260507171536 | 60 | 254 | 1.0 | 8.0 | 0.00 | 0.00 | 0.00 | 62 | 1022.5 |
| 20260507170028 | 59 | 242 | 1.0 | 6.0 | 0.00 | 0.00 | 0.00 | 61 | 1022.4 |
| 20260507164647 | 60 | 252 | 0.0 | 6.0 | 0.00 | 0.00 | 0.00 | 63 | 1022.6 |
| 20260507163034 | 58 | 263 | 0.0 | 4.0 | 0.00 | 0.00 | 0.00 | 66 | 1022.7 |
| 20260507161532 | 56 | 261 | 1.0 | 9.0 | 0.00 | 0.00 | 0.00 | 67 | 1022.6 |
| 20260507160104 | 56 | 269 | 1.0 | 6.0 | 0.00 | 0.00 | 0.00 | 70 | 1022.7 |
| 20260507154532 | 55 | 268 | 1.0 | 6.0 | 0.00 | 0.00 | 0.00 | 72 | 1022.7 |
| 20260507153032 | 54 | 277 | 0.0 | 5.0 | 0.00 | 0.00 | 0.00 | 73 | 1022.8 |
| 20260507151548 | 54 | 274 | 1.0 | 9.0 | 0.00 | 0.00 | 0.00 | 74 | 1022.9 |
| 20260507144532 | 52 | 271 | 0.0 | 4.0 | 0.00 | 0.00 | 0.00 | 78 | 1023.0 |
| 20260507143031 | 51 | 259 | 1.0 | 6.0 | 0.00 | 0.00 | 0.00 | 80 | 1023.0 |
| 20260507141532 | 51 | 259 | 1.0 | 8.0 | 0.00 | 0.00 | 0.00 | 80 | 1022.8 |
| 20260507134532 | 51 | 255 | 1.0 | 6.0 | 0.00 | 0.00 | 0.00 | 80 | 1022.5 |
| 20260507133028 | 51 | 266 | 1.0 | 7.0 | 0.00 | 0.00 | 0.00 | 81 | 1022.5 |
| 20260507131614 | 51 | 265 | 1.0 | 7.0 | 0.00 | 0.00 | 0.00 | 81 | 1022.5 |
| 20260507130026 | 51 | 261 | 0.0 | 6.0 | 0.00 | 0.00 | 0.00 | 82 | 1022.4 |
| 20260507123029 | 51 | 265 | 1.0 | 5.0 | 0.00 | 0.00 | 0.00 | 82 | 1022.4 |
| 20260507121530 | 51 | 260 | 1.0 | 6.0 | 0.00 | 0.00 | 0.00 | 82 | 1022.4 |
| 20260507120034 | 51 | 234 | 0.0 | 5.0 | 0.00 | 0.00 | 0.00 | 82 | 1022.4 |
| 20260507114534 | 51 | 238 | 1.0 | 4.0 | 0.00 | 0.00 | 0.00 | 82 | 1022.3 |
| 20260507111530 | 52 | 237 | 1.0 | 8.0 | 0.00 | 0.00 | 0.00 | 81 | 1022.1 |
| 20260507110028 | 52 | 247 | 1.0 | 6.0 | 0.00 | 0.00 | 0.00 | 81 | 1022.0 |
| 20260507104532 | 52 | 239 | 1.0 | 8.0 | 0.00 | 0.00 | 0.00 | 81 | 1021.9 |
| 20260507103032 | 53 | 238 | 2.0 | 8.0 | 0.00 | 0.00 | 0.00 | 81 | 1022.1 |
| 20260507101537 | 53 | 246 | 1.0 | 8.0 | 0.00 | 0.00 | 0.00 | 82 | 1022.1 |
| 20260507100039 | 53 | 244 | 1.0 | 8.0 | 0.00 | 0.00 | 0.00 | 82 | 1022.1 |
| 20260507094526 | 53 | 250 | 1.0 | 6.0 | 0.00 | 0.00 | 0.00 | 82 | 1022.2 |
| 20260507093032 | 53 | 248 | 1.0 | 8.0 | 0.00 | 0.00 | 0.00 | 82 | 1022.2 |
| 20260507091529 | 53 | 254 | 2.0 | 9.0 | 0.00 | 0.00 | 0.00 | 82 | 1022.2 |
| 20260507090031 | 53 | 243 | 1.0 | 9.0 | 0.00 | 0.00 | 0.00 | 81 | 1022.3 |
| 20260507084529 | 54 | 252 | 1.0 | 6.0 | 0.00 | 0.00 | 0.00 | 81 | 1022.3 |
| 20260507083033 | 54 | 264 | 1.0 | 6.0 | 0.00 | 0.00 | 0.00 | 80 | 1022.3 |
| 20260507081533 | 54 | 259 | 1.0 | 7.0 | 0.00 | 0.00 | 0.00 | 80 | 1022.3 |
| 20260507080030 | 55 | 252 | 2.0 | 10.0 | 0.00 | 0.00 | 0.00 | 80 | 1022.3 |
| 20260507074531 | 55 | 249 | 2.0 | 9.0 | 0.00 | 0.00 | 0.00 | 80 | 1022.3 |
| 20260507073032 | 55 | 250 | 2.0 | 6.0 | 0.00 | 0.00 | 0.00 | 80 | 1022.5 |
| 20260507071531 | 56 | 247 | 3.0 | 11.0 | 0.00 | 0.00 | 0.00 | 80 | 1022.5 |
| 20260507070105 | 56 | 249 | 2.0 | 8.0 | 0.00 | 0.00 | 0.00 | 80 | 1022.5 |
| 20260507064646 | 56 | 245 | 2.0 | 8.0 | 0.00 | 0.00 | 0.00 | 80 | 1022.6 |
| 20260507063031 | 56 | 233 | 2.0 | 9.0 | 0.00 | 0.00 | 0.00 | 80 | 1022.6 |
| 20260507061604 | 56 | 244 | 1.0 | 7.0 | 0.00 | 0.00 | 0.00 | 80 | 1022.6 |
| 20260507060031 | 57 | 250 | 1.0 | 5.0 | 0.00 | 0.00 | 0.00 | 79 | 1022.6 |
| 20260507054530 | 57 | 252 | 0.0 | 4.0 | 0.00 | 0.00 | 0.00 | 79 | 1022.8 |
| 20260507053030 | 57 | 243 | 1.0 | 6.0 | 0.00 | 0.00 | 0.00 | 79 | 1022.9 |
| 20260507051529 | 58 | 246 | 1.0 | 6.0 | 0.00 | 0.00 | 0.00 | 79 | 1022.9 |
| 20260507050103 | 58 | 246 | 1.0 | 6.0 | 0.00 | 0.00 | 0.00 | 78 | 1022.9 |
| 20260507044530 | 58 | 255 | 1.0 | 7.0 | 0.00 | 0.00 | 0.00 | 78 | 1022.9 |
| 20260507043030 | 58 | 257 | 0.0 | 5.0 | 0.00 | 0.00 | 0.00 | 77 | 1022.8 |